Time;durP1;ratioP1;P1;durP2;ratioP2;P2;SDS_P1;SDS_P2;PMS_P1;PMS_P2;Temp;Humidity;BMP_temperature;BMP_pressure;BME280_temperature;BME280_humidity;BME280_pressure;Samples;Min_cycle;Max_cycle;Signal;HPM_P1;HPM_P2
2023/05/23 00:02:30;;;;;;;;;;;16.00;95.60;;;;;;5030167;28;19968;-96
2023/05/23 00:05:24;;;;;;;;;;;16.00;95.60;;;;;;5025369;28;19914;-96
2023/05/23 00:08:17;;;;;;;;;;;16.00;95.60;;;;;;5024719;28;19996;-96
2023/05/23 00:11:09;;;;;;;;;;;16.10;95.70;;;;;;5023119;28;20240;-96
2023/05/23 00:14:01;;;;;;;;;;;16.00;95.70;;;;;;5016213;28;19909;-96
2023/05/23 00:16:49;;;;;;;;;;;16.20;95.70;;;;;;5040694;28;19913;-96
2023/05/23 00:19:36;;;;;;;;;;;16.00;95.70;;;;;;5030286;28;19923;-96
2023/05/23 00:22:28;;;;;;;;;;;16.00;95.70;;;;;;5027306;28;19910;-96
2023/05/23 00:25:13;;;;;;;;;;;16.00;95.80;;;;;;5014787;28;19909;-96
2023/05/23 00:28:03;;;;;;;;;;;16.00;95.80;;;;;;5039240;28;19909;-96
2023/05/23 00:30:49;;;;;;;;;;;16.00;95.80;;;;;;5024936;28;20329;-96
2023/05/23 00:33:35;;;;;;;;;;;16.00;95.80;;;;;;5025475;28;20412;-96
2023/05/23 00:36:24;;;;;;;;;;;16.00;95.90;;;;;;5045003;28;19983;-96
2023/05/23 00:39:17;;;;;;;;;;;16.00;95.90;;;;;;5047594;28;19957;-96
2023/05/23 00:42:03;;;;;;;;;;;16.00;95.90;;;;;;5032994;28;20424;-96
2023/05/23 00:45:00;;;;;;;;;;;16.00;95.90;;;;;;5033500;28;19916;-96
2023/05/23 00:47:46;;;;;;;;;;;16.00;95.90;;;;;;5023839;28;19909;-96
2023/05/23 00:50:32;;;;;;;;;;;16.00;95.90;;;;;;5017570;28;19916;-96
2023/05/23 00:53:20;;;;;;;;;;;16.00;96.00;;;;;;5029019;28;19910;-96
2023/05/23 00:56:05;;;;;;;;;;;16.00;96.00;;;;;;5024158;28;19909;-96
2023/05/23 00:58:32;;;;;;;;;;;15.90;96.00;;;;;;5020018;28;19914;-96
2023/05/23 01:01:08;;;;;;;;;;;16.00;96.00;;;;;;5032052;28;19913;-96
2023/05/23 01:03:35;;;;;;;;;;;16.00;96.00;;;;;;5023573;28;19914;-96
2023/05/23 01:06:24;;;;;;;;;;;15.90;96.00;;;;;;5020700;28;20003;-96
2023/05/23 01:09:10;;;;;;;;;;;16.00;96.10;;;;;;5028986;28;19916;-96
2023/05/23 01:12:04;;;;;;;;;;;16.00;96.10;;;;;;5017798;28;19914;-95
2023/05/23 01:14:42;;;;;;;;;;;16.00;96.10;;;;;;5037670;28;20288;-95
2023/05/23 01:17:40;;;;;;;;;;;15.90;96.10;;;;;;5026560;28;19916;-96
2023/05/23 01:20:26;;;;;;;;;;;15.90;96.10;;;;;;5024900;28;19917;-96
2023/05/23 01:23:02;;;;;;;;;;;15.90;96.20;;;;;;5026270;28;19913;-96
2023/05/23 01:25:31;;;;;;;;;;;15.90;96.20;;;;;;5031912;28;19956;-95
2023/05/23 01:28:23;;;;;;;;;;;15.90;96.20;;;;;;5038205;28;19975;-96
2023/05/23 01:30:51;;;;;;;;;;;15.90;96.20;;;;;;5043458;28;19928;-96
2023/05/23 01:33:37;;;;;;;;;;;15.90;96.20;;;;;;5031927;28;19913;-95
2023/05/23 01:36:26;;;;;;;;;;;15.90;96.20;;;;;;5014726;28;19913;-96
2023/05/23 01:39:14;;;;;;;;;;;15.90;96.30;;;;;;5036092;28;20008;-96
2023/05/23 01:42:01;;;;;;;;;;;15.90;96.30;;;;;;5031161;28;19913;-95
2023/05/23 01:44:47;;;;;;;;;;;15.90;96.20;;;;;;5042081;28;19909;-96
2023/05/23 01:47:34;;;;;;;;;;;15.90;96.20;;;;;;5035407;28;19913;-96
2023/05/23 01:50:08;;;;;;;;;;;15.90;96.30;;;;;;5025993;28;20420;-96
2023/05/23 01:52:54;;;;;;;;;;;15.90;96.30;;;;;;5033605;28;19960;-96
2023/05/23 01:55:40;;;;;;;;;;;15.90;96.40;;;;;;5030303;28;19910;-96
2023/05/23 01:58:26;;;;;;;;;;;15.90;96.30;;;;;;5035532;28;19921;-96
2023/05/23 02:01:12;;;;;;;;;;;15.90;96.30;;;;;;5034549;28;19968;-96
2023/05/23 02:03:59;;;;;;;;;;;15.90;96.40;;;;;;5042903;28;19909;-96
2023/05/23 02:06:46;;;;;;;;;;;15.90;96.40;;;;;;5026132;28;19909;-96
2023/05/23 02:09:31;;;;;;;;;;;15.90;96.40;;;;;;5023655;28;19960;-96
2023/05/23 02:12:17;;;;;;;;;;;15.90;96.40;;;;;;5029357;28;20354;-96
2023/05/23 02:15:04;;;;;;;;;;;15.90;96.40;;;;;;5018440;28;19920;-96
2023/05/23 02:17:51;;;;;;;;;;;15.90;96.50;;;;;;5033113;28;19953;-96
2023/05/23 02:20:37;;;;;;;;;;;15.80;96.40;;;;;;5017493;28;19918;-96
2023/05/23 02:23:32;;;;;;;;;;;15.90;96.40;;;;;;5033822;28;19977;-96
2023/05/23 02:26:18;;;;;;;;;;;15.80;96.40;;;;;;5034188;28;19910;-96
2023/05/23 02:29:03;;;;;;;;;;;15.80;96.50;;;;;;5023496;28;20004;-96
2023/05/23 02:32:03;;;;;;;;;;;15.90;96.50;;;;;;5028058;28;20004;-96
2023/05/23 02:34:49;;;;;;;;;;;15.80;96.50;;;;;;5048710;28;19955;-96
2023/05/23 02:37:37;;;;;;;;;;;15.80;96.50;;;;;;5024508;28;19910;-96
2023/05/23 02:40:25;;;;;;;;;;;15.80;96.60;;;;;;5035153;28;19924;-96
2023/05/23 02:43:20;;;;;;;;;;;15.90;96.60;;;;;;5030746;28;19916;-96
2023/05/23 02:46:08;;;;;;;;;;;15.90;96.60;;;;;;5034859;28;19944;-96
2023/05/23 02:48:57;;;;;;;;;;;15.80;96.60;;;;;;5024993;28;19909;-96
2023/05/23 02:51:46;;;;;;;;;;;15.80;96.60;;;;;;5019117;28;19945;-96
2023/05/23 02:54:32;;;;;;;;;;;15.80;96.60;;;;;;5032353;28;19908;-96
2023/05/23 02:57:20;;;;;;;;;;;15.80;96.70;;;;;;5018171;28;19909;-96
2023/05/23 03:00:12;;;;;;;;;;;15.80;96.60;;;;;;5021214;28;19913;-96
2023/05/23 03:02:59;;;;;;;;;;;15.80;96.70;;;;;;5025210;28;19909;-96
2023/05/23 03:05:46;;;;;;;;;;;15.80;96.70;;;;;;5026600;28;19916;-96
2023/05/23 03:08:32;;;;;;;;;;;15.80;96.70;;;;;;5034130;28;19963;-96
2023/05/23 03:11:18;;;;;;;;;;;15.80;96.80;;;;;;5019533;28;19948;-96
2023/05/23 03:14:06;;;;;;;;;;;15.80;96.70;;;;;;5028168;28;20266;-96
2023/05/23 03:16:51;;;;;;;;;;;15.80;96.70;;;;;;5020070;28;19959;-96
2023/05/23 03:19:41;;;;;;;;;;;15.80;96.70;;;;;;5020973;28;20007;-96
2023/05/23 03:22:27;;;;;;;;;;;15.80;96.70;;;;;;5038811;28;19909;-96
2023/05/23 03:25:13;;;;;;;;;;;15.80;96.80;;;;;;5024686;28;19932;-96
2023/05/23 03:28:00;;;;;;;;;;;15.80;96.80;;;;;;5030665;28;19992;-96
2023/05/23 03:30:45;;;;;;;;;;;15.80;96.80;;;;;;5029382;28;20003;-96
2023/05/23 03:33:32;;;;;;;;;;;15.80;96.80;;;;;;5026826;28;20009;-96
2023/05/23 03:36:23;;;;;;;;;;;15.80;96.80;;;;;;5021681;28;19920;-96
2023/05/23 03:38:49;;;;;;;;;;;15.80;96.80;;;;;;5025709;28;20267;-96
2023/05/23 03:41:16;;;;;;;;;;;15.80;96.80;;;;;;5044672;28;19913;-96
2023/05/23 03:43:42;;;;;;;;;;;15.70;96.80;;;;;;5032641;28;19924;-96
2023/05/23 03:46:28;;;;;;;;;;;15.80;96.90;;;;;;5009348;28;19913;-96
2023/05/23 03:49:14;;;;;;;;;;;15.80;96.90;;;;;;5023079;28;19963;-95
2023/05/23 03:52:03;;;;;;;;;;;15.80;96.90;;;;;;5027319;28;19968;-96
2023/05/23 03:55:08;;;;;;;;;;;15.70;96.90;;;;;;5031648;28;20422;-96
2023/05/23 03:57:54;;;;;;;;;;;15.80;96.90;;;;;;5027932;28;19909;-96
2023/05/23 04:00:40;;;;;;;;;;;15.70;96.90;;;;;;5025541;28;19920;-96
2023/05/23 04:03:31;;;;;;;;;;;15.80;96.90;;;;;;5042159;28;19924;-96
2023/05/23 04:05:59;;;;;;;;;;;15.80;96.90;;;;;;5036607;28;19916;-96
2023/05/23 04:08:48;;;;;;;;;;;15.80;96.90;;;;;;5033640;28;19992;-96
2023/05/23 04:11:50;;;;;;;;;;;15.70;96.90;;;;;;5034440;28;19916;-96
2023/05/23 04:14:46;;;;;;;;;;;15.70;96.90;;;;;;5031577;28;19913;-96
2023/05/23 04:17:42;;;;;;;;;;;15.80;97.00;;;;;;5027614;28;20054;-96
2023/05/23 04:20:28;;;;;;;;;;;15.70;97.00;;;;;;5026465;28;19917;-96
2023/05/23 04:22:55;;;;;;;;;;;15.70;97.00;;;;;;5029082;28;20347;-96
2023/05/23 04:25:40;;;;;;;;;;;15.70;97.00;;;;;;5019224;28;20017;-96
2023/05/23 04:28:26;;;;;;;;;;;15.80;97.10;;;;;;5029234;28;19952;-96
2023/05/23 04:31:14;;;;;;;;;;;15.80;97.00;;;;;;5031751;28;19909;-96
2023/05/23 04:33:48;;;;;;;;;;;15.70;97.00;;;;;;5038448;28;19909;-96
2023/05/23 04:36:36;;;;;;;;;;;15.80;97.10;;;;;;5023720;28;19949;-96
2023/05/23 04:39:25;;;;;;;;;;;15.70;97.10;;;;;;5036687;28;19935;-96
2023/05/23 04:42:11;;;;;;;;;;;15.70;97.10;;;;;;5033802;28;19941;-96
2023/05/23 04:44:57;;;;;;;;;;;15.80;97.20;;;;;;5042353;28;19914;-96
2023/05/23 04:47:56;;;;;;;;;;;15.70;97.30;;;;;;5023379;28;19909;-96
2023/05/23 04:50:46;;;;;;;;;;;15.80;97.30;;;;;;5026137;28;19947;-96
2023/05/23 04:53:31;;;;;;;;;;;15.80;97.30;;;;;;5014647;28;20022;-96
2023/05/23 04:56:39;;;;;;;;;;;15.70;97.20;;;;;;5007929;28;20004;-96
2023/05/23 04:59:35;;;;;;;;;;;15.70;97.20;;;;;;5018781;28;19953;-96
2023/05/23 05:02:33;;;;;;;;;;;15.70;97.20;;;;;;5006168;28;20354;-96
2023/05/23 05:05:22;;;;;;;;;;;15.80;97.20;;;;;;5006833;28;19956;-96
2023/05/23 05:08:13;;;;;;;;;;;15.80;97.20;;;;;;5004571;28;19910;-96
2023/05/23 05:10:59;;;;;;;;;;;15.80;97.20;;;;;;4997878;28;19933;-96
2023/05/23 05:13:46;;;;;;;;;;;15.80;97.10;;;;;;5016015;28;19917;-96
2023/05/23 05:16:14;;;;;;;;;;;15.80;97.10;;;;;;4990348;28;19910;-96
2023/05/23 05:19:06;;;;;;;;;;;15.80;97.10;;;;;;4993463;28;19957;-96
2023/05/23 05:21:53;;;;;;;;;;;15.80;97.10;;;;;;4991183;28;19921;-96
2023/05/23 05:25:00;;;;;;;;;;;15.80;97.00;;;;;;5011426;28;19910;-96
2023/05/23 05:27:46;;;;;;;;;;;15.80;97.00;;;;;;4995232;28;19910;-96
2023/05/23 05:30:54;;;;;;;;;;;15.80;96.90;;;;;;5027058;28;19961;-96
2023/05/23 05:33:40;;;;;;;;;;;15.80;96.90;;;;;;5002935;28;19964;-96
2023/05/23 05:36:47;;;;;;;;;;;15.80;96.90;;;;;;5017378;28;20509;-96
2023/05/23 05:39:32;;;;;;;;;;;15.80;96.80;;;;;;4996764;28;19918;-96
2023/05/23 05:42:23;;;;;;;;;;;15.80;96.80;;;;;;5000269;28;20312;-96
2023/05/23 05:45:23;;;;;;;;;;;15.80;96.80;;;;;;5011331;28;19968;-96
2023/05/23 05:48:11;;;;;;;;;;;15.80;96.70;;;;;;5008075;28;20402;-96
2023/05/23 05:51:02;;;;;;;;;;;15.90;96.70;;;;;;5014848;28;19909;-96
2023/05/23 05:53:48;;;;;;;;;;;15.90;96.70;;;;;;5017249;28;19979;-96
2023/05/23 05:56:34;;;;;;;;;;;15.80;96.60;;;;;;4993659;28;19917;-96
2023/05/23 05:59:20;;;;;;;;;;;15.90;96.70;;;;;;4999594;28;19920;-96
2023/05/23 06:02:08;;;;;;;;;;;15.90;96.60;;;;;;4996073;28;19917;-96
2023/05/23 06:04:36;;;;;;;;;;;15.90;96.60;;;;;;4990473;28;19910;-96
2023/05/23 06:07:28;;;;;;;;;;;15.90;96.60;;;;;;4992136;28;19949;-96
2023/05/23 06:09:56;;;;;;;;;;;15.90;96.60;;;;;;4997697;28;20028;-95
2023/05/23 06:12:41;;;;;;;;;;;15.90;96.60;;;;;;4976725;28;19914;-96
2023/05/23 06:15:28;;;;;;;;;;;15.90;96.60;;;;;;4999950;28;19909;-96
2023/05/23 06:18:16;;;;;;;;;;;15.90;96.50;;;;;;5018943;28;19914;-96
2023/05/23 06:20:42;;;;;;;;;;;15.90;96.50;;;;;;4987880;28;19918;-96
2023/05/23 06:23:31;;;;;;;;;;;15.90;96.50;;;;;;4981053;28;19957;-96
2023/05/23 06:26:36;;;;;;;;;;;15.90;96.50;;;;;;5015202;28;19913;-96
2023/05/23 06:29:48;;;;;;;;;;;;;;;;;;;;;
2023/05/23 06:32:37;;;;;;;;;;;15.90;96.50;;;;;;4984884;28;19916;-96
2023/05/23 06:38:51;;;;;;;;;;;15.90;96.50;;;;;;4939874;29;19939;-96
2023/05/23 06:41:57;;;;;;;;;;;15.90;96.50;;;;;;4942281;29;19906;-96
2023/05/23 06:44:59;;;;;;;;;;;15.90;96.50;;;;;;4940566;29;19911;-96
2023/05/23 06:48:05;;;;;;;;;;;16.10;96.60;;;;;;4934283;29;19911;-96
2023/05/23 06:51:11;;;;;;;;;;;;;;;;;;;;;
2023/05/23 06:54:20;;;;;;;;;;;15.90;96.60;;;;;;4941721;29;19946;-96
2023/05/23 06:57:37;;;;;;;;;;;15.90;96.50;;;;;;4904525;29;19918;-96
2023/05/23 07:00:27;;;;;;;;;;;15.90;96.60;;;;;;4917691;29;19929;-96
2023/05/23 07:06:57;;;;;;;;;;;15.90;96.60;;;;;;4918202;29;19911;-96
2023/05/23 07:10:14;;;;;;;;;;;15.90;96.60;;;;;;4887703;29;19980;-96
2023/05/23 07:13:26;;;;;;;;;;;16.00;96.60;;;;;;4799812;29;20040;-96
2023/05/23 07:16:21;;;;;;;;;;;16.00;96.60;;;;;;4824179;29;19943;-96
2023/05/23 07:19:25;;;;;;;;;;;16.10;96.60;;;;;;4826248;29;19917;-96
2023/05/23 07:22:26;;;;;;;;;;;16.00;96.60;;;;;;4824733;29;19925;-96
2023/05/23 07:25:39;;;;;;;;;;;16.10;96.60;;;;;;4821185;29;19913;-96
2023/05/23 07:28:42;;;;;;;;;;;16.00;96.60;;;;;;4806301;29;19920;-96
2023/05/23 07:31:31;;;;;;;;;;;16.00;96.70;;;;;;4796956;29;19914;-96
2023/05/23 07:34:20;;;;;;;;;;;15.90;96.60;;;;;;4804205;29;19914;-96
2023/05/23 07:37:29;;;;;;;;;;;16.00;96.60;;;;;;4827653;29;19920;-96
2023/05/23 07:40:21;;;;;;;;;;;16.00;96.60;;;;;;4852692;29;19920;-96
2023/05/23 07:43:08;;;;;;;;;;;16.00;96.60;;;;;;4862030;29;20428;-96
2023/05/23 07:45:59;;;;;;;;;;;16.00;96.60;;;;;;4933919;28;20384;-96
2023/05/23 07:49:02;;;;;;;;;;;16.00;96.60;;;;;;4956188;28;19938;-96
2023/05/23 07:51:50;;;;;;;;;;;16.00;96.60;;;;;;4960761;28;19974;-96
2023/05/23 07:54:46;;;;;;;;;;;16.00;96.60;;;;;;5013719;28;19974;-96
2023/05/23 07:57:49;;;;;;;;;;;16.00;96.60;;;;;;5022707;28;19957;-96
2023/05/23 08:00:35;;;;;;;;;;;16.00;96.60;;;;;;5026588;28;19914;-96
2023/05/23 08:03:40;;;;;;;;;;;16.00;96.60;;;;;;5012840;28;19914;-96
2023/05/23 08:06:30;;;;;;;;;;;16.00;96.60;;;;;;5028072;28;19910;-96
2023/05/23 08:09:17;;;;;;;;;;;16.00;96.70;;;;;;5046215;28;19913;-96
2023/05/23 08:12:07;;;;;;;;;;;16.00;96.70;;;;;;5027683;28;19909;-96
2023/05/23 08:15:15;;;;;;;;;;;16.00;96.70;;;;;;5036779;28;20382;-96
2023/05/23 08:18:08;;;;;;;;;;;16.00;96.70;;;;;;5024255;28;19932;-96
2023/05/23 08:21:09;;;;;;;;;;;16.00;97.10;;;;;;4989215;28;20378;-96
2023/05/23 08:24:17;;;;;;;;;;;16.00;96.80;;;;;;4978759;28;19910;-96
2023/05/23 08:27:07;;;;;;;;;;;16.00;96.80;;;;;;4986468;28;19986;-96
2023/05/23 08:29:57;;;;;;;;;;;16.00;96.80;;;;;;4980810;28;19910;-96
2023/05/23 09:02:21;;;;;;;;;;;16.10;96.80;;;;;;5063371;26;19932;-96
2023/05/23 09:05:36;;;;;;;;;;;16.10;96.80;;;;;;5017655;28;19917;-96
2023/05/23 09:08:44;;;;;;;;;;;16.10;96.80;;;;;;4968996;28;19981;-96
2023/05/23 09:11:49;;;;;;;;;;;16.10;96.80;;;;;;4962228;28;19919;-96
2023/05/23 09:14:47;;;;;;;;;;;16.10;96.80;;;;;;4952916;28;19911;-96
2023/05/23 09:17:41;;;;;;;;;;;16.10;96.80;;;;;;4955010;29;19915;-96
2023/05/23 09:24:08;;;;;;;;;;;16.10;96.80;;;;;;4962890;29;19978;-96
2023/05/23 09:30:30;;;;;;;;;;;16.10;96.80;;;;;;4962757;28;19985;-96
2023/05/23 09:36:12;;;;;;;;;;;16.20;96.80;;;;;;5482326;22;19909;-96
2023/05/23 09:42:23;;;;;;;;;;;16.20;96.70;;;;;;5009261;28;19924;-96
2023/05/23 09:45:23;;;;;;;;;;;16.20;96.70;;;;;;4985326;28;19916;-96
2023/05/23 09:48:43;;;;;;;;;;;;;;;;;;;;;
2023/05/23 09:51:20;;;;;;;;;;;16.20;96.60;;;;;;4985734;28;19921;-96
2023/05/23 09:54:16;;;;;;;;;;;16.20;96.70;;;;;;5003849;28;19909;-96
2023/05/23 09:56:49;;;;;;;;;;;16.30;96.70;;;;;;5009022;28;20120;-96
2023/05/23 10:19:38;;;;;;;;;;;16.30;96.60;;;;;;5090472;28;20334;-96
2023/05/23 10:27:33;;;;;;;;;;;16.40;96.50;;;;;;5079528;28;19931;-96
2023/05/23 10:30:25;;;;;;;;;;;16.60;96.80;;;;;;5061939;28;19974;-95
2023/05/23 10:33:15;;;;;;;;;;;16.50;96.70;;;;;;5054031;28;19909;-96
2023/05/23 10:36:19;;;;;;;;;;;16.50;96.60;;;;;;5080160;28;19950;-96
2023/05/23 10:39:24;;;;;;;;;;;16.50;96.50;;;;;;5082661;28;19960;-96
2023/05/23 10:41:55;;;;;;;;;;;16.50;96.60;;;;;;5062407;28;20360;-96
2023/05/23 10:44:30;;;;;;;;;;;16.50;96.50;;;;;;5067845;28;19939;-96
2023/05/23 10:47:18;;;;;;;;;;;16.50;96.50;;;;;;5064060;28;19909;-96
2023/05/23 10:50:07;;;;;;;;;;;16.50;96.40;;;;;;5061224;28;19908;-96
2023/05/23 10:53:05;;;;;;;;;;;16.50;96.40;;;;;;5067497;28;19974;-96
2023/05/23 10:55:51;;;;;;;;;;;16.50;96.50;;;;;;5086587;28;20304;-96
2023/05/23 10:58:40;;;;;;;;;;;16.60;96.40;;;;;;5050621;28;19900;-96
2023/05/23 11:01:33;;;;;;;;;;;16.60;96.40;;;;;;5071746;28;19909;-96
2023/05/23 11:04:03;;;;;;;;;;;16.60;96.40;;;;;;5050366;28;19909;-94
2023/05/23 11:06:55;;;;;;;;;;;16.60;96.40;;;;;;5030451;28;19913;-95
2023/05/23 11:09:44;;;;;;;;;;;16.60;96.40;;;;;;5065495;28;19908;-96
2023/05/23 11:13:01;;;;;;;;;;;16.60;96.50;;;;;;5071628;28;19913;-96
2023/05/23 11:15:48;;;;;;;;;;;16.70;96.50;;;;;;5070955;28;20569;-96
2023/05/23 11:18:44;;;;;;;;;;;16.70;96.50;;;;;;5075765;28;19916;-96
2023/05/23 11:22:07;;;;;;;;;;;16.70;96.40;;;;;;5057690;28;19909;-96
2023/05/23 11:24:56;;;;;;;;;;;16.70;96.40;;;;;;4962533;28;19918;-96
2023/05/23 11:27:54;;;;;;;;;;;16.70;96.50;;;;;;4948052;29;19919;-96
2023/05/23 11:30:41;;;;;;;;;;;16.70;96.50;;;;;;4972109;28;19948;-96
2023/05/23 11:33:11;;;;;;;;;;;16.70;96.50;;;;;;4943085;29;19911;-95
2023/05/23 11:35:59;;;;;;;;;;;16.70;96.50;;;;;;4964961;28;19911;-96
2023/05/23 11:38:45;;;;;;;;;;;16.70;96.50;;;;;;4947867;28;19914;-96
2023/05/23 11:41:37;;;;;;;;;;;16.70;96.50;;;;;;4974171;28;19910;-96
2023/05/23 11:44:22;;;;;;;;;;;16.70;96.50;;;;;;4967919;28;19910;-96
2023/05/23 11:47:30;;;;;;;;;;;16.70;96.60;;;;;;4941554;28;19910;-96
2023/05/23 11:50:16;;;;;;;;;;;16.70;96.60;;;;;;4938684;29;19911;-96
2023/05/23 11:53:04;;;;;;;;;;;16.70;96.60;;;;;;4954021;28;19914;-96
2023/05/23 11:55:52;;;;;;;;;;;16.70;96.60;;;;;;4947410;28;19917;-96
2023/05/23 11:58:45;;;;;;;;;;;16.80;96.60;;;;;;4986020;28;19914;-96
2023/05/23 12:01:34;;;;;;;;;;;16.70;96.50;;;;;;4982423;28;20360;-96
2023/05/23 12:04:08;;;;;;;;;;;16.90;96.60;;;;;;4980079;28;19972;-96
2023/05/23 12:06:41;;;;;;;;;;;16.80;96.60;;;;;;4964136;28;20020;-96
2023/05/23 12:09:28;;;;;;;;;;;16.80;96.60;;;;;;4942933;28;19969;-96
2023/05/23 12:12:15;;;;;;;;;;;16.80;96.60;;;;;;4989023;28;19922;-96
2023/05/23 12:15:28;;;;;;;;;;;16.80;96.60;;;;;;4990847;28;19914;-96
2023/05/23 12:21:00;;;;;;;;;;;16.80;96.60;;;;;;4902833;29;19970;-96
2023/05/23 12:26:49;;;;;;;;;;;16.80;96.60;;;;;;4899378;29;19930;-96
2023/05/23 12:29:24;;;;;;;;;;;16.80;96.60;;;;;;4914736;29;19911;-96
2023/05/23 12:32:09;;;;;;;;;;;16.80;96.60;;;;;;4912076;29;19915;-96
2023/05/23 12:35:16;;;;;;;;;;;16.70;96.50;;;;;;4878538;29;19934;-96
2023/05/23 12:38:01;;;;;;;;;;;16.80;96.50;;;;;;4915184;29;20256;-96
2023/05/23 12:40:51;;;;;;;;;;;16.80;96.50;;;;;;4909148;29;20403;-96
2023/05/23 12:43:37;;;;;;;;;;;16.80;96.50;;;;;;4891921;29;19945;-96
2023/05/23 12:46:03;;;;;;;;;;;16.80;96.50;;;;;;4915928;29;19911;-96
2023/05/23 12:48:56;;;;;;;;;;;16.80;96.50;;;;;;4913342;29;19922;-96
2023/05/23 12:52:15;;;;;;;;;;;16.80;96.50;;;;;;4913948;29;20293;-96
2023/05/23 12:54:50;;;;;;;;;;;16.80;96.50;;;;;;4893691;29;19918;-96
2023/05/23 12:57:57;;;;;;;;;;;16.80;96.50;;;;;;4895644;29;20541;-96
2023/05/23 13:00:45;;;;;;;;;;;16.80;96.40;;;;;;4909115;29;19923;-96
2023/05/23 13:03:11;;;;;;;;;;;16.80;96.40;;;;;;4889283;29;20281;-96
2023/05/23 13:06:08;;;;;;;;;;;16.80;96.40;;;;;;4887755;29;19922;-96
2023/05/23 13:09:05;;;;;;;;;;;16.80;96.40;;;;;;4909385;29;19903;-96
2023/05/23 13:12:01;;;;;;;;;;;16.80;96.40;;;;;;4926077;29;19918;-96
2023/05/23 13:14:50;;;;;;;;;;;16.80;96.40;;;;;;4902927;29;19911;-96
2023/05/23 13:17:56;;;;;;;;;;;16.80;96.40;;;;;;5041415;22;19939;-96
2023/05/23 15:06:00;;;;;;;;;;;16.70;95.90;;;;;;5037093;28;19924;-95
2023/05/23 15:08:46;;;;;;;;;;;16.70;95.90;;;;;;4999197;28;20267;-96
2023/05/23 15:11:11;;;;;;;;;;;16.70;95.90;;;;;;5039684;28;19983;-95
2023/05/23 15:14:00;;;;;;;;;;;16.80;95.90;;;;;;4999546;28;19944;-96
2023/05/23 15:16:31;;;;;;;;;;;16.70;95.90;;;;;;4985453;28;19916;-95
2023/05/23 15:18:57;;;;;;;;;;;16.70;95.90;;;;;;4958392;28;19924;-94
2023/05/23 15:21:25;;;;;;;;;;;16.60;95.80;;;;;;4948328;28;19957;-96
2023/05/23 15:23:51;;;;;;;;;;;16.60;95.80;;;;;;4958411;28;19981;-96
2023/05/23 15:26:18;;;;;;;;;;;16.80;95.80;;;;;;4971180;28;19921;-96
2023/05/23 15:28:43;;;;;;;;;;;16.70;95.70;;;;;;4945535;29;19911;-95
2023/05/23 15:31:09;;;;;;;;;;;16.70;95.70;;;;;;4957999;28;19914;-95
2023/05/23 15:33:35;;;;;;;;;;;16.70;95.70;;;;;;4945271;28;20427;-95
2023/05/23 15:36:01;;;;;;;;;;;16.70;95.70;;;;;;4970452;28;20378;-95
2023/05/23 15:38:26;;;;;;;;;;;16.70;95.70;;;;;;4965564;28;20284;-96
2023/05/23 15:40:54;;;;;;;;;;;16.70;95.70;;;;;;4965242;28;19918;-95
2023/05/23 15:43:39;;;;;;;;;;;16.70;95.70;;;;;;4954680;28;20355;-95
2023/05/23 15:46:05;;;;;;;;;;;16.70;95.60;;;;;;4977483;28;20323;-95
2023/05/23 15:48:58;;;;;;;;;;;16.70;95.60;;;;;;5011677;28;19944;-96
2023/05/23 15:51:44;;;;;;;;;;;16.70;95.70;;;;;;5037184;28;19913;-95
2023/05/23 15:54:11;;;;;;;;;;;16.70;95.60;;;;;;5046907;28;19916;-94
2023/05/23 15:56:37;;;;;;;;;;;16.70;95.60;;;;;;5017447;28;19909;-94
2023/05/23 15:59:11;;;;;;;;;;;16.70;95.50;;;;;;5005374;28;20404;-95
2023/05/23 16:01:36;;;;;;;;;;;16.70;95.60;;;;;;5000656;28;19914;-96
2023/05/23 16:04:22;;;;;;;;;;;16.70;95.50;;;;;;5029234;28;19927;-95
2023/05/23 16:06:48;;;;;;;;;;;16.70;95.50;;;;;;5033190;28;19909;-95
2023/05/23 16:09:14;;;;;;;;;;;16.60;95.50;;;;;;5027954;28;19909;-94
2023/05/23 16:11:40;;;;;;;;;;;16.60;95.50;;;;;;5051260;28;20269;-94
2023/05/23 16:14:08;;;;;;;;;;;16.70;95.40;;;;;;5035490;28;19920;-95
2023/05/23 16:16:57;;;;;;;;;;;16.70;95.40;;;;;;5019039;28;19920;-96
2023/05/23 16:19:25;;;;;;;;;;;16.70;95.40;;;;;;5041228;28;19916;-96
2023/05/23 16:21:57;;;;;;;;;;;16.60;95.30;;;;;;5044552;28;19921;-96
2023/05/23 16:24:42;;;;;;;;;;;16.60;95.40;;;;;;5039717;28;19919;-96
2023/05/23 16:28:01;;;;;;;;;;;16.60;95.40;;;;;;5051434;28;19920;-96
2023/05/23 16:31:17;;;;;;;;;;;;;;;;;;;;;
2023/05/23 16:34:16;;;;;;;;;;;16.60;95.40;;;;;;4982825;28;20006;-96
2023/05/23 16:36:59;;;;;;;;;;;16.60;95.40;;;;;;4931911;29;19966;-96
2023/05/23 16:40:04;;;;;;;;;;;16.60;95.40;;;;;;4931274;29;19987;-96
2023/05/23 16:42:50;;;;;;;;;;;16.60;95.40;;;;;;4924099;29;19911;-95
2023/05/23 16:45:16;;;;;;;;;;;16.60;95.40;;;;;;4922603;29;19921;-95
2023/05/23 16:48:01;;;;;;;;;;;16.60;95.50;;;;;;4930729;29;19919;-96
2023/05/23 16:50:47;;;;;;;;;;;16.60;95.40;;;;;;4928402;29;19994;-95
2023/05/23 16:53:32;;;;;;;;;;;16.60;95.50;;;;;;4930454;29;19962;-96
2023/05/23 16:56:18;;;;;;;;;;;16.60;95.40;;;;;;4943058;29;20387;-96
2023/05/23 16:59:23;;;;;;;;;;;16.60;95.40;;;;;;4929853;29;19919;-96
2023/05/23 17:02:10;;;;;;;;;;;16.60;95.30;;;;;;4933330;29;19926;-95
2023/05/23 17:04:44;;;;;;;;;;;16.60;95.40;;;;;;4925468;29;19919;-96
2023/05/23 17:07:12;;;;;;;;;;;16.50;95.30;;;;;;4963173;28;19978;-96
2023/05/23 17:09:38;;;;;;;;;;;16.60;95.40;;;;;;5019012;28;19916;-96
2023/05/23 17:12:25;;;;;;;;;;;16.50;95.30;;;;;;5026736;28;19921;-95
2023/05/23 17:14:52;;;;;;;;;;;16.50;95.30;;;;;;5049904;28;19915;-96
2023/05/23 17:17:38;;;;;;;;;;;16.50;95.30;;;;;;5035809;28;19909;-95
2023/05/23 17:20:25;;;;;;;;;;;16.50;95.30;;;;;;5051171;28;19917;-95
2023/05/23 17:23:11;;;;;;;;;;;16.50;95.30;;;;;;5055369;28;19909;-96
2023/05/23 17:25:37;;;;;;;;;;;16.50;95.30;;;;;;5029893;28;19920;-96
2023/05/23 17:28:02;;;;;;;;;;;16.50;95.30;;;;;;5021753;28;20092;-92
2023/05/23 17:30:28;;;;;;;;;;;16.50;95.30;;;;;;5032588;28;19938;-93
2023/05/23 17:32:53;;;;;;;;;;;16.60;95.30;;;;;;5034559;28;19954;-92
2023/05/23 17:35:19;;;;;;;;;;;16.50;95.30;;;;;;5038082;28;20382;-92
2023/05/23 17:37:45;;;;;;;;;;;16.50;95.30;;;;;;5037999;28;19913;-96
2023/05/23 17:40:15;;;;;;;;;;;16.50;95.30;;;;;;5037893;28;20007;-95
2023/05/23 17:43:02;;;;;;;;;;;16.40;95.20;;;;;;5039651;28;19917;-96
2023/05/23 17:45:48;;;;;;;;;;;16.40;95.30;;;;;;5053375;28;19940;-95
2023/05/23 17:48:19;;;;;;;;;;;16.40;95.20;;;;;;5037912;28;19913;-96
2023/05/23 17:50:45;;;;;;;;;;;16.40;95.20;;;;;;5020215;28;19913;-94
2023/05/23 17:53:13;;;;;;;;;;;16.40;95.20;;;;;;5037469;28;20366;-96
2023/05/23 17:55:58;;;;;;;;;;;16.40;95.30;;;;;;5038534;28;20003;-96
2023/05/23 17:58:24;;;;;;;;;;;16.40;95.30;;;;;;5034568;28;19970;-96
2023/05/23 18:00:50;;;;;;;;;;;16.40;95.30;;;;;;5021543;28;19916;-95
2023/05/23 18:03:37;;;;;;;;;;;16.40;95.30;;;;;;5020962;28;19913;-95
2023/05/23 18:06:21;;;;;;;;;;;16.40;95.30;;;;;;5055384;28;19921;-96
2023/05/23 18:08:47;;;;;;;;;;;16.70;95.40;;;;;;5034770;28;20290;-96
2023/05/23 18:11:13;;;;;;;;;;;16.40;95.30;;;;;;5036144;28;19920;-95
2023/05/23 18:13:41;;;;;;;;;;;16.40;95.30;;;;;;5073819;23;19932;-96
2023/05/23 18:16:49;;;;;;;;;;;16.40;95.30;;;;;;5041732;28;19920;-96
2023/05/23 18:19:14;;;;;;;;;;;16.40;95.30;;;;;;4998413;28;19922;-95
2023/05/23 18:21:40;;;;;;;;;;;16.40;95.40;;;;;;5048402;23;19933;-96
2023/05/23 18:24:07;;;;;;;;;;;16.40;95.40;;;;;;4997693;28;19920;-96
2023/05/23 18:26:33;;;;;;;;;;;16.40;95.40;;;;;;4998182;28;19965;-96
2023/05/23 18:29:19;;;;;;;;;;;16.40;95.40;;;;;;4998184;28;20010;-96
2023/05/23 18:31:45;;;;;;;;;;;16.40;95.40;;;;;;4997360;28;19924;-96
2023/05/23 18:34:11;;;;;;;;;;;16.30;95.40;;;;;;4997579;28;19914;-96
2023/05/23 18:36:37;;;;;;;;;;;16.30;95.40;;;;;;4997941;28;19920;-96
2023/05/23 18:39:03;;;;;;;;;;;16.30;95.40;;;;;;4997999;28;19918;-96
2023/05/23 18:41:30;;;;;;;;;;;16.30;95.40;;;;;;4997544;28;19909;-96
2023/05/23 18:44:13;;;;;;;;;;;16.30;95.40;;;;;;4997409;28;20362;-96
2023/05/23 18:46:58;;;;;;;;;;;16.30;95.50;;;;;;4996635;28;19945;-96
2023/05/23 18:49:25;;;;;;;;;;;16.30;95.50;;;;;;4997117;28;19939;-95
2023/05/23 18:51:52;;;;;;;;;;;16.30;95.50;;;;;;4984341;28;19913;-95
2023/05/23 18:54:17;;;;;;;;;;;16.30;95.50;;;;;;4996811;28;19996;-95
2023/05/23 18:56:43;;;;;;;;;;;16.30;95.50;;;;;;4997564;28;19957;-96
2023/05/23 18:59:29;;;;;;;;;;;16.30;95.50;;;;;;4999985;28;19928;-96
2023/05/23 19:01:54;;;;;;;;;;;16.30;95.50;;;;;;4992647;28;20427;-96
2023/05/23 19:04:21;;;;;;;;;;;16.30;95.50;;;;;;5013950;28;19921;-95
2023/05/23 19:06:48;;;;;;;;;;;16.30;95.60;;;;;;4998651;28;19975;-96
2023/05/23 19:09:14;;;;;;;;;;;16.30;95.50;;;;;;4998496;28;19914;-96
2023/05/23 19:11:40;;;;;;;;;;;16.30;95.60;;;;;;4998482;28;19913;-96
2023/05/23 19:14:05;;;;;;;;;;;16.20;95.60;;;;;;4992251;28;19925;-95
2023/05/23 19:16:33;;;;;;;;;;;16.30;95.60;;;;;;4997889;28;19980;-96